Time;durP1;ratioP1;P1;durP2;ratioP2;P2;SDS_P1;SDS_P2;PMS_P1;PMS_P2;Temp;Humidity;BMP_temperature;BMP_pressure;BME280_temperature;BME280_humidity;BME280_pressure;Samples;Min_cycle;Max_cycle;Signal;HPM_P1;HPM_P2
2024/01/21 00:01:55;;;;;;;5.85;2.42;;;;;;;-147.63;100.00;58384.75;5057002;28;20404;-45
2024/01/21 00:04:21;;;;;;;3.75;2.45;;;;;;;-147.63;100.00;58384.75;5055718;28;20060;-46
2024/01/21 00:06:46;;;;;;;3.22;2.50;;;;;;;-147.63;100.00;58384.75;5048553;28;20068;-44
2024/01/21 00:09:12;;;;;;;4.20;2.80;;;;;;;-147.63;100.00;58384.75;5061361;28;20028;-45
2024/01/21 00:11:37;;;;;;;3.88;2.50;;;;;;;-147.63;100.00;58384.75;5057909;28;20032;-45
2024/01/21 00:14:02;;;;;;;3.60;2.53;;;;;;;-147.63;100.00;58384.75;5055377;28;20035;-45
2024/01/21 00:16:28;;;;;;;4.72;2.70;;;;;;;-147.63;100.00;58384.75;5061459;28;20052;-45
2024/01/21 00:18:53;;;;;;;4.03;2.65;;;;;;;-147.63;100.00;58384.75;5077466;28;20801;-46
2024/01/21 00:21:18;;;;;;;4.13;2.88;;;;;;;-147.63;100.00;58384.75;5078729;28;20268;-46
2024/01/21 00:23:46;;;;;;;4.32;2.70;;;;;;;-147.63;100.00;58384.75;5079256;28;20495;-45
2024/01/21 00:26:11;;;;;;;3.47;2.40;;;;;;;-147.63;100.00;58384.75;5067895;28;20476;-44
2024/01/21 00:28:37;;;;;;;2.90;2.60;;;;;;;-147.63;100.00;58384.75;5080481;28;20020;-44
2024/01/21 00:31:03;;;;;;;6.45;2.60;;;;;;;-147.63;100.00;58384.75;5085288;28;20020;-46
2024/01/21 00:33:28;;;;;;;5.50;2.67;;;;;;;-147.63;100.00;58384.75;5080816;28;20029;-45
2024/01/21 00:35:54;;;;;;;3.55;2.45;;;;;;;-147.63;100.00;58384.75;5084857;28;20035;-44
2024/01/21 00:38:19;;;;;;;5.00;2.30;;;;;;;-147.63;100.00;58384.75;5079662;28;20110;-43
2024/01/21 00:40:45;;;;;;;3.58;2.33;;;;;;;-147.63;100.00;58384.75;5077816;28;20067;-45
2024/01/21 00:43:10;;;;;;;5.68;2.70;;;;;;;-147.63;100.00;58384.75;5073941;28;20247;-47
2024/01/21 00:45:35;;;;;;;4.07;2.33;;;;;;;-147.63;100.00;58384.75;5077091;28;20389;-44
2024/01/21 00:48:01;;;;;;;4.18;2.65;;;;;;;-147.63;100.00;58384.75;5085130;28;20065;-47
2024/01/21 00:50:26;;;;;;;5.45;2.92;;;;;;;-147.63;100.00;58384.75;5073726;28;20035;-46
2024/01/21 00:52:52;;;;;;;3.45;2.15;;;;;;;-147.63;100.00;58384.75;5073090;28;20030;-45
2024/01/21 00:55:18;;;;;;;5.20;2.38;;;;;;;-147.63;100.00;58384.75;5062285;28;20032;-46
2024/01/21 00:57:44;;;;;;;3.55;2.40;;;;;;;-147.63;100.00;58384.75;5078633;28;20101;-44
2024/01/21 01:00:10;;;;;;;3.47;2.53;;;;;;;-147.63;100.00;58384.75;5073943;28;20064;-44
2024/01/21 01:02:35;;;;;;;2.72;2.08;;;;;;;-147.63;100.00;58384.75;5076717;28;20032;-45
2024/01/21 01:05:01;;;;;;;4.43;2.47;;;;;;;-147.63;100.00;58384.75;5078213;28;20075;-44
2024/01/21 01:07:26;;;;;;;2.92;2.10;;;;;;;-147.63;100.00;58384.75;5067904;28;20029;-48
2024/01/21 01:09:52;;;;;;;3.40;2.22;;;;;;;-147.63;100.00;58384.75;5078304;28;20091;-45
2024/01/21 01:12:17;;;;;;;3.08;2.10;;;;;;;-147.63;100.00;58384.75;5077277;28;20043;-48
2024/01/21 01:14:43;;;;;;;4.90;2.35;;;;;;;-147.63;100.00;58384.75;5064273;28;20016;-52
2024/01/21 01:17:08;;;;;;;3.85;2.38;;;;;;;-147.63;100.00;58384.75;5074647;28;20045;-46
2024/01/21 01:19:34;;;;;;;3.00;2.20;;;;;;;-147.63;100.00;58384.75;5059792;28;20396;-49
2024/01/21 01:21:59;;;;;;;3.10;2.25;;;;;;;-147.63;100.00;58384.75;5077468;28;20038;-50
2024/01/21 01:24:25;;;;;;;4.03;2.42;;;;;;;-147.63;100.00;58384.75;5083035;28;20094;-53
2024/01/21 01:26:50;;;;;;;3.92;2.03;;;;;;;-147.63;100.00;58384.75;5064841;28;20546;-49
2024/01/21 01:29:16;;;;;;;3.08;2.20;;;;;;;-147.63;100.00;58384.75;5080535;28;20396;-47
2024/01/21 01:31:42;;;;;;;3.78;2.17;;;;;;;-147.63;100.00;58384.75;5069267;28;20439;-50
2024/01/21 01:34:07;;;;;;;3.75;2.00;;;;;;;-147.63;100.00;58384.75;5079528;28;21079;-50
2024/01/21 01:36:33;;;;;;;4.75;2.10;;;;;;;-147.63;100.00;58384.75;5076862;28;20035;-46
2024/01/21 01:38:59;;;;;;;2.90;1.90;;;;;;;-147.63;100.00;58384.75;5062503;28;20399;-49
2024/01/21 01:41:24;;;;;;;2.95;1.98;;;;;;;-147.63;100.00;58384.75;5075612;28;20035;-45
2024/01/21 01:43:49;;;;;;;2.85;2.10;;;;;;;-147.63;100.00;58384.75;5076975;28;20298;-44
2024/01/21 01:46:15;;;;;;;3.72;2.25;;;;;;;-147.63;100.00;58384.75;5075515;28;20046;-45
2024/01/21 01:48:40;;;;;;;2.58;1.77;;;;;;;-147.63;100.00;58384.75;5082804;28;20673;-47
2024/01/21 01:51:06;;;;;;;3.50;2.00;;;;;;;-147.63;100.00;58384.75;5064853;28;20451;-46
2024/01/21 01:53:33;;;;;;;5.05;2.13;;;;;;;-147.63;100.00;58384.75;5071044;28;20032;-43
2024/01/21 01:55:59;;;;;;;3.72;2.17;;;;;;;-147.63;100.00;58384.75;5075847;28;20107;-45
2024/01/21 01:58:27;;;;;;;3.17;2.03;;;;;;;-147.63;100.00;58384.75;5074710;28;20119;-44
2024/01/21 02:00:52;;;;;;;1.88;1.67;;;;;;;-147.63;100.00;58384.75;5076270;28;20038;-45
2024/01/21 02:03:17;;;;;;;2.92;2.10;;;;;;;-147.63;100.00;58384.75;5072555;28;20043;-50
2024/01/21 02:05:43;;;;;;;2.08;1.83;;;;;;;-147.63;100.00;58384.75;5084532;28;20027;-47
2024/01/21 02:08:08;;;;;;;2.55;1.90;;;;;;;-147.63;100.00;58384.75;5080868;28;20027;-49
2024/01/21 02:10:34;;;;;;;2.88;2.20;;;;;;;-147.63;100.00;58384.75;5075012;28;20028;-49
2024/01/21 02:12:59;;;;;;;2.30;2.03;;;;;;;-147.63;100.00;58384.75;5072389;28;20032;-50
2024/01/21 02:15:25;;;;;;;2.95;1.90;;;;;;;-147.63;100.00;58384.75;5072310;28;20024;-48
2024/01/21 02:17:50;;;;;;;2.83;1.65;;;;;;;-147.63;100.00;58384.75;5075846;28;20130;-51
2024/01/21 02:20:16;;;;;;;2.95;1.77;;;;;;;-147.63;100.00;58384.75;5074881;28;20038;-49
2024/01/21 02:22:42;;;;;;;3.45;1.98;;;;;;;-147.63;100.00;58384.75;5078815;28;20106;-48
2024/01/21 02:25:08;;;;;;;2.13;1.73;;;;;;;-147.63;100.00;58384.75;5079274;28;20051;-49
2024/01/21 02:27:34;;;;;;;6.25;2.13;;;;;;;-147.63;100.00;58384.75;5065059;28;20032;-49
2024/01/21 02:30:00;;;;;;;2.47;1.85;;;;;;;-147.63;100.00;58384.75;5080019;28;20449;-46
2024/01/21 02:32:26;;;;;;;2.47;2.20;;;;;;;-147.63;100.00;58384.75;5079490;28;20052;-43
2024/01/21 02:34:52;;;;;;;2.60;1.90;;;;;;;-147.63;100.00;58384.75;5081912;28;20064;-48
2024/01/21 02:37:17;;;;;;;2.50;2.00;;;;;;;-147.63;100.00;58384.75;5076602;28;20377;-50
2024/01/21 02:39:43;;;;;;;6.38;1.90;;;;;;;-147.63;100.00;58384.75;5075751;28;20506;-44
2024/01/21 02:42:08;;;;;;;3.65;2.05;;;;;;;-147.63;100.00;58384.75;5075971;28;20032;-45
2024/01/21 02:44:33;;;;;;;3.85;1.88;;;;;;;-147.63;100.00;58384.75;5082415;28;20209;-48
2024/01/21 02:46:59;;;;;;;2.40;1.90;;;;;;;-147.63;100.00;58384.75;5089873;28;20035;-44
2024/01/21 02:49:28;;;;;;;2.95;2.05;;;;;;;-147.63;100.00;58384.75;5083419;28;20097;-49
2024/01/21 02:51:54;;;;;;;4.18;2.13;;;;;;;-147.63;100.00;58384.75;5078261;28;20097;-50
2024/01/21 02:54:19;;;;;;;2.30;1.83;;;;;;;-147.63;100.00;58384.75;5069733;28;20568;-50
2024/01/21 02:56:45;;;;;;;2.58;1.83;;;;;;;-147.63;100.00;58384.75;5074864;28;20062;-48
2024/01/21 02:59:10;;;;;;;4.25;2.22;;;;;;;-147.63;100.00;58384.75;5076512;28;20067;-48
2024/01/21 03:01:35;;;;;;;3.25;2.00;;;;;;;-147.63;100.00;58384.75;5075503;28;20089;-48
2024/01/21 03:04:01;;;;;;;3.53;1.85;;;;;;;-147.63;100.00;58384.75;5082696;28;20465;-49
2024/01/21 03:06:26;;;;;;;2.63;2.20;;;;;;;-147.63;100.00;58384.75;5078922;28;20028;-47
2024/01/21 03:08:52;;;;;;;2.60;1.98;;;;;;;-147.63;100.00;58384.75;5082721;28;20089;-43
2024/01/21 03:11:17;;;;;;;2.90;2.08;;;;;;;-147.63;100.00;58384.75;5078251;28;20035;-45
2024/01/21 03:13:42;;;;;;;2.30;1.92;;;;;;;-147.63;100.00;58384.75;5076926;28;20039;-48
2024/01/21 03:16:08;;;;;;;3.17;1.85;;;;;;;-147.63;100.00;58384.75;5083472;28;20030;-49
2024/01/21 03:18:38;;;;;;;2.97;2.08;;;;;;;-147.63;100.00;58384.75;5084334;28;20027;-47
2024/01/21 03:21:04;;;;;;;2.05;1.60;;;;;;;-147.63;100.00;58384.75;5076123;28;20054;-47
2024/01/21 03:23:29;;;;;;;1.80;1.65;;;;;;;-147.63;100.00;58384.75;5081304;28;20480;-44
2024/01/21 03:25:55;;;;;;;2.47;1.85;;;;;;;-147.63;100.00;58384.75;5076624;28;21442;-47
2024/01/21 03:28:20;;;;;;;2.05;1.65;;;;;;;-147.63;100.00;58384.75;5077404;28;20485;-49
2024/01/21 03:30:46;;;;;;;3.42;2.00;;;;;;;-147.63;100.00;58384.75;5075916;28;20099;-44
2024/01/21 03:33:11;;;;;;;2.17;1.85;;;;;;;-147.63;100.00;58384.75;5069637;28;20046;-46
2024/01/21 03:35:36;;;;;;;3.15;1.73;;;;;;;-147.63;100.00;58384.75;5075349;28;20021;-48
2024/01/21 03:38:02;;;;;;;4.25;2.00;;;;;;;-147.63;100.00;58384.75;5064222;28;20490;-49
2024/01/21 03:40:27;;;;;;;2.65;1.90;;;;;;;-147.63;100.00;58384.75;5083155;28;20377;-43
2024/01/21 03:42:53;;;;;;;2.45;1.65;;;;;;;-147.63;100.00;58384.75;5070081;28;20107;-44
2024/01/21 03:45:18;;;;;;;2.95;1.85;;;;;;;-147.63;100.00;58384.75;5066804;28;20028;-49
2024/01/21 03:47:43;;;;;;;3.70;2.20;;;;;;;-147.63;100.00;58384.75;5065960;28;20032;-49
2024/01/21 03:50:09;;;;;;;1.77;1.55;;;;;;;-147.63;100.00;58384.75;5084438;28;20069;-50
2024/01/21 03:52:34;;;;;;;2.80;1.80;;;;;;;-147.63;100.00;58384.75;5059481;28;20330;-47
2024/01/21 03:55:01;;;;;;;2.85;2.08;;;;;;;-147.63;100.00;58384.75;5080753;28;20040;-45
2024/01/21 03:57:27;;;;;;;3.10;1.98;;;;;;;-147.63;100.00;58384.75;5079908;28;20030;-46
2024/01/21 03:59:52;;;;;;;2.90;1.83;;;;;;;-147.63;100.00;58384.75;5057675;28;20401;-47
2024/01/21 04:02:19;;;;;;;2.70;1.80;;;;;;;-147.63;100.00;58384.75;5078026;28;20086;-51
2024/01/21 04:04:45;;;;;;;2.67;1.73;;;;;;;-147.63;100.00;58384.75;5077210;28;20024;-48
2024/01/21 04:07:10;;;;;;;1.90;1.52;;;;;;;-147.63;100.00;58384.75;5078201;28;20024;-50
2024/01/21 04:09:36;;;;;;;3.13;2.00;;;;;;;-147.63;100.00;58384.75;5080704;28;20052;-47
2024/01/21 04:12:01;;;;;;;3.60;2.30;;;;;;;-147.63;100.00;58384.75;5053093;28;20525;-46
2024/01/21 04:14:26;;;;;;;2.70;1.95;;;;;;;-147.63;100.00;58384.75;5082011;28;20028;-49
2024/01/21 04:16:52;;;;;;;3.10;1.83;;;;;;;-147.63;100.00;58384.75;5059960;28;20574;-48
2024/01/21 04:19:18;;;;;;;2.75;1.83;;;;;;;-147.63;100.00;58384.75;5049281;28;20139;-50
2024/01/21 04:21:43;;;;;;;3.40;2.05;;;;;;;-147.63;100.00;58384.75;5078743;28;20035;-48
2024/01/21 04:24:09;;;;;;;3.15;1.90;;;;;;;-147.63;100.00;58384.75;5076592;28;20027;-44
2024/01/21 04:26:34;;;;;;;3.05;1.98;;;;;;;-147.63;100.00;58384.75;5075603;28;20185;-44
2024/01/21 04:28:59;;;;;;;3.60;1.70;;;;;;;-147.63;100.00;58384.75;5078643;28;20404;-48
2024/01/21 04:31:25;;;;;;;2.65;2.22;;;;;;;-147.63;100.00;58384.75;5077030;28;20059;-45
2024/01/21 04:33:50;;;;;;;3.08;2.13;;;;;;;-147.63;100.00;58384.75;5084998;28;20031;-48
2024/01/21 04:36:18;;;;;;;2.42;1.60;;;;;;;-147.63;100.00;58384.75;5084485;28;20107;-47
2024/01/21 04:38:44;;;;;;;3.13;1.88;;;;;;;-147.63;100.00;58384.75;5080560;28;20024;-43
2024/01/21 04:41:09;;;;;;;2.78;1.88;;;;;;;-147.63;100.00;58384.75;5083075;28;20540;-46
2024/01/21 04:43:35;;;;;;;2.80;1.85;;;;;;;-147.63;100.00;58384.75;5084408;28;20019;-47
2024/01/21 04:46:01;;;;;;;2.10;1.50;;;;;;;-147.63;100.00;58384.75;5071865;28;20115;-45
2024/01/21 04:48:27;;;;;;;3.10;1.70;;;;;;;-147.63;100.00;58384.75;5075363;28;20100;-44
2024/01/21 04:50:52;;;;;;;2.40;1.70;;;;;;;-147.63;100.00;58384.75;5076133;28;20558;-45
2024/01/21 04:53:17;;;;;;;2.22;1.92;;;;;;;-147.63;100.00;58384.75;5079291;28;20016;-44
2024/01/21 04:55:43;;;;;;;3.08;2.00;;;;;;;-147.63;100.00;58384.75;5086190;28;20028;-46
2024/01/21 04:58:08;;;;;;;1.63;1.50;;;;;;;-147.63;100.00;58384.75;5084270;28;20028;-45
2024/01/21 05:00:33;;;;;;;3.17;2.00;;;;;;;-147.63;100.00;58384.75;5072862;28;20020;-48
2024/01/21 05:02:59;;;;;;;5.53;2.20;;;;;;;-147.63;100.00;58384.75;5073763;28;20433;-45
2024/01/21 05:05:24;;;;;;;3.15;1.88;;;;;;;-147.63;100.00;58384.75;5079755;28;20370;-48
2024/01/21 05:07:51;;;;;;;2.00;1.80;;;;;;;-147.63;100.00;58384.75;5075814;28;20056;-48
2024/01/21 05:10:17;;;;;;;2.78;1.90;;;;;;;-147.63;100.00;58384.75;5079505;28;20116;-47
2024/01/21 05:12:42;;;;;;;2.28;1.98;;;;;;;-147.63;100.00;58384.75;5075434;28;20121;-50
2024/01/21 05:15:08;;;;;;;2.00;1.60;;;;;;;-147.63;100.00;58384.75;5056995;28;20383;-49
2024/01/21 05:17:33;;;;;;;1.90;1.73;;;;;;;-147.63;100.00;58384.75;5078083;28;20044;-50
2024/01/21 05:19:58;;;;;;;2.03;1.45;;;;;;;-147.63;100.00;58384.75;5075507;28;20025;-49
2024/01/21 05:22:24;;;;;;;2.00;1.65;;;;;;;-147.63;100.00;58384.75;5085279;28;20357;-47
2024/01/21 05:24:50;;;;;;;2.08;1.60;;;;;;;-147.63;100.00;58384.75;5082841;28;20036;-50
2024/01/21 05:27:16;;;;;;;2.47;1.70;;;;;;;-147.63;100.00;58384.75;5077423;28;20458;-43
2024/01/21 05:29:42;;;;;;;2.70;1.70;;;;;;;-147.63;100.00;58384.75;5077577;28;20043;-49
2024/01/21 05:32:08;;;;;;;2.40;1.55;;;;;;;-147.63;100.00;58384.75;5061326;28;20119;-47
2024/01/21 05:34:33;;;;;;;2.70;1.70;;;;;;;-147.63;100.00;58384.75;5082102;28;20417;-49
2024/01/21 05:36:58;;;;;;;2.53;1.90;;;;;;;-147.63;100.00;58384.75;5051585;28;20027;-50
2024/01/21 05:39:24;;;;;;;3.20;1.70;;;;;;;-147.63;100.00;58384.75;5067010;28;20564;-48
2024/01/21 05:42:02;;;;;;;3.22;1.80;;;;;;;-147.63;100.00;58384.75;5080350;28;20277;-47
2024/01/21 05:44:28;;;;;;;2.83;1.83;;;;;;;-147.63;100.00;58384.75;5063087;28;20057;-45
2024/01/21 05:46:53;;;;;;;1.90;1.50;;;;;;;-147.63;100.00;58384.75;5079188;28;20020;-46
2024/01/21 05:49:18;;;;;;;2.13;1.70;;;;;;;-147.63;100.00;58384.75;5078381;28;20024;-46
2024/01/21 05:51:44;;;;;;;2.15;1.60;;;;;;;-147.63;100.00;58384.75;5069373;28;20024;-43
2024/01/21 05:54:09;;;;;;;2.33;1.50;;;;;;;-147.63;100.00;58384.75;5085045;28;20396;-47
2024/01/21 05:56:36;;;;;;;1.88;1.25;;;;;;;-147.63;100.00;58384.75;5078588;28;20107;-47
2024/01/21 05:59:02;;;;;;;3.05;2.08;;;;;;;-147.63;100.00;58384.75;5075874;28;20206;-49
2024/01/21 06:01:27;;;;;;;1.70;1.45;;;;;;;-147.63;100.00;58384.75;5084495;28;20020;-48
2024/01/21 06:03:52;;;;;;;2.67;1.95;;;;;;;-147.63;100.00;58384.75;5081217;28;20112;-49
2024/01/21 06:06:18;;;;;;;2.15;1.52;;;;;;;-147.63;100.00;58384.75;5068517;28;20032;-48
2024/01/21 06:08:43;;;;;;;3.92;1.67;;;;;;;-147.63;100.00;58384.75;5083253;28;20099;-48
2024/01/21 06:11:09;;;;;;;2.08;1.60;;;;;;;-147.63;100.00;58384.75;5079011;28;20036;-47
2024/01/21 06:13:34;;;;;;;1.98;1.50;;;;;;;-147.63;100.00;58384.75;5076555;28;20205;-46
2024/01/21 06:16:01;;;;;;;2.05;1.52;;;;;;;-147.63;100.00;58384.75;5069258;28;20024;-47
2024/01/21 06:18:26;;;;;;;2.90;1.75;;;;;;;-147.63;100.00;58384.75;5070197;28;20542;-49
2024/01/21 06:20:52;;;;;;;2.28;1.58;;;;;;;-147.63;100.00;58384.75;5078271;28;20103;-44
2024/01/21 06:23:17;;;;;;;3.40;1.58;;;;;;;-147.63;100.00;58384.75;5071911;28;20061;-44
2024/01/21 06:25:42;;;;;;;2.80;1.50;;;;;;;-147.63;100.00;58384.75;5073107;28;20436;-45
2024/01/21 06:28:08;;;;;;;4.10;1.73;;;;;;;-147.63;100.00;58384.75;5072667;28;20024;-49
2024/01/21 06:30:33;;;;;;;1.40;1.30;;;;;;;-147.63;100.00;58384.75;5071436;28;20413;-48
2024/01/21 06:32:58;;;;;;;2.35;1.42;;;;;;;-147.63;100.00;58384.75;5074907;28;20435;-45
2024/01/21 06:35:26;;;;;;;1.92;1.40;;;;;;;-147.63;100.00;58384.75;5078217;28;20626;-44
2024/01/21 06:37:52;;;;;;;1.55;1.33;;;;;;;-147.63;100.00;58384.75;5075142;28;20032;-45
2024/01/21 06:40:18;;;;;;;2.88;1.70;;;;;;;-147.63;100.00;58384.75;5083055;28;20072;-49
2024/01/21 06:42:43;;;;;;;2.97;1.35;;;;;;;-147.63;100.00;58384.75;5079809;28;20073;-45
2024/01/21 06:45:11;;;;;;;2.70;1.50;;;;;;;-147.63;100.00;58384.75;5076995;28;20063;-46
2024/01/21 06:47:37;;;;;;;3.00;1.30;;;;;;;-147.63;100.00;58384.75;5076785;28;20024;-45
2024/01/21 06:50:03;;;;;;;2.75;1.90;;;;;;;-147.63;100.00;58384.75;5078273;28;20052;-46
2024/01/21 06:52:28;;;;;;;2.00;1.58;;;;;;;-147.63;100.00;58384.75;5075146;28;20039;-44
2024/01/21 06:54:54;;;;;;;3.60;1.55;;;;;;;-147.63;100.00;58384.75;5078746;28;20020;-48
2024/01/21 06:57:19;;;;;;;2.22;1.38;;;;;;;-147.63;100.00;58384.75;5075422;28;20028;-48
2024/01/21 06:59:45;;;;;;;2.60;1.50;;;;;;;-147.63;100.00;58384.75;5070945;28;20024;-47
2024/01/21 07:02:11;;;;;;;1.98;1.73;;;;;;;-147.63;100.00;58384.75;5068326;28;20085;-48
2024/01/21 07:04:37;;;;;;;3.67;1.67;;;;;;;-147.63;100.00;58384.75;5081537;28;20020;-48
2024/01/21 07:07:03;;;;;;;2.78;1.60;;;;;;;-147.63;100.00;58384.75;5074500;28;20329;-48
2024/01/21 07:09:29;;;;;;;2.22;1.50;;;;;;;-147.63;100.00;58384.75;5070651;28;20729;-47
2024/01/21 07:11:54;;;;;;;2.45;1.50;;;;;;;-147.63;100.00;58384.75;5074221;28;20479;-49
2024/01/21 07:14:20;;;;;;;2.03;1.50;;;;;;;-147.63;100.00;58384.75;5070654;28;20107;-50
2024/01/21 07:16:45;;;;;;;2.67;1.67;;;;;;;-147.63;100.00;58384.75;5082525;28;20430;-48
2024/01/21 07:19:10;;;;;;;2.50;1.60;;;;;;;-147.63;100.00;58384.75;5081719;28;20474;-49
2024/01/21 07:21:36;;;;;;;2.35;1.65;;;;;;;-147.63;100.00;58384.75;5073644;28;20024;-48
2024/01/21 07:24:01;;;;;;;1.95;1.67;;;;;;;-147.63;100.00;58384.75;5076479;28;20020;-48
2024/01/21 07:26:27;;;;;;;1.30;1.20;;;;;;;-147.63;100.00;58384.75;5082910;28;20039;-49
2024/01/21 07:28:53;;;;;;;2.65;1.77;;;;;;;-147.63;100.00;58384.75;5079628;28;20016;-48
2024/01/21 07:31:18;;;;;;;2.10;1.52;;;;;;;-147.63;100.00;58384.75;5054969;28;20080;-49
2024/01/21 07:33:44;;;;;;;2.65;1.50;;;;;;;-147.63;100.00;58384.75;5073856;28;20024;-47
2024/01/21 07:36:11;;;;;;;2.00;1.60;;;;;;;-147.63;100.00;58384.75;5077611;28;20173;-49
2024/01/21 07:38:36;;;;;;;2.17;1.55;;;;;;;-147.63;100.00;58384.75;5057658;28;20024;-48
2024/01/21 07:41:03;;;;;;;2.50;1.80;;;;;;;-147.63;100.00;58384.75;5048543;28;20478;-47
2024/01/21 07:43:29;;;;;;;3.10;1.55;;;;;;;-147.63;100.00;58384.75;5079379;28;20024;-48
2024/01/21 07:45:55;;;;;;;2.33;1.55;;;;;;;-147.63;100.00;58384.75;5074153;28;20494;-43
2024/01/21 07:48:20;;;;;;;3.30;1.38;;;;;;;-147.63;100.00;58384.75;5076001;28;20028;-46
2024/01/21 07:50:46;;;;;;;3.50;1.73;;;;;;;-147.63;100.00;58384.75;5076082;28;20029;-45
2024/01/21 07:53:12;;;;;;;2.53;1.50;;;;;;;-147.63;100.00;58384.75;5067392;28;20127;-46
2024/01/21 07:55:37;;;;;;;2.80;1.70;;;;;;;-147.63;100.00;58384.75;5073285;28;20023;-45
2024/01/21 07:58:03;;;;;;;2.20;1.77;;;;;;;-147.63;100.00;58384.75;5067169;28;20036;-43
2024/01/21 08:00:29;;;;;;;2.30;1.60;;;;;;;-147.63;100.00;58384.75;5072331;28;20047;-44
2024/01/21 08:02:54;;;;;;;4.93;1.92;;;;;;;-147.63;100.00;58384.75;5072660;28;20036;-45
2024/01/21 08:05:20;;;;;;;4.35;1.65;;;;;;;-147.63;100.00;58384.75;5077958;28;20024;-44
2024/01/21 08:07:46;;;;;;;2.30;1.50;;;;;;;-147.63;100.00;58384.75;5080033;28;20095;-46
2024/01/21 08:10:11;;;;;;;3.20;1.50;;;;;;;-147.63;100.00;58384.75;5076087;28;20059;-45
2024/01/21 08:12:37;;;;;;;1.90;1.30;;;;;;;-147.63;100.00;58384.75;5071257;28;20042;-48
2024/01/21 08:15:03;;;;;;;2.38;1.75;;;;;;;-147.63;100.00;58384.75;5076996;28;20614;-49
2024/01/21 08:17:28;;;;;;;3.40;1.45;;;;;;;-147.63;100.00;58384.75;5061870;28;20043;-46
2024/01/21 08:19:54;;;;;;;2.53;1.80;;;;;;;-147.63;100.00;58384.75;5074195;28;20024;-46
2024/01/21 08:22:21;;;;;;;2.70;1.65;;;;;;;-147.63;100.00;58384.75;5081060;28;20073;-48
2024/01/21 08:24:49;;;;;;;2.30;1.67;;;;;;;-147.63;100.00;58384.75;5062048;28;20031;-50
2024/01/21 08:27:14;;;;;;;1.90;1.60;;;;;;;-147.63;100.00;58384.75;5073970;28;20035;-48
2024/01/21 08:29:39;;;;;;;3.28;1.75;;;;;;;-147.63;100.00;58384.75;5083122;28;20020;-50
2024/01/21 08:32:07;;;;;;;2.38;1.48;;;;;;;-147.63;100.00;58384.75;5078159;28;20040;-49
2024/01/21 08:34:33;;;;;;;1.75;1.60;;;;;;;-147.63;100.00;58384.75;5057357;28;20024;-48
2024/01/21 08:36:58;;;;;;;3.50;1.90;;;;;;;-147.63;100.00;58384.75;5083540;28;20024;-50
2024/01/21 08:39:23;;;;;;;2.53;1.77;;;;;;;-147.63;100.00;58384.75;5091841;28;20028;-51
2024/01/21 08:41:49;;;;;;;1.55;1.40;;;;;;;-147.63;100.00;58384.75;5080673;28;20028;-50
2024/01/21 08:44:15;;;;;;;4.80;1.33;;;;;;;-147.63;100.00;58384.75;5078299;28;20024;-49
2024/01/21 08:46:40;;;;;;;1.75;1.55;;;;;;;-147.63;100.00;58384.75;5076970;28;20040;-48
2024/01/21 08:49:06;;;;;;;1.98;1.60;;;;;;;-147.63;100.00;58384.75;5074615;28;20035;-50
2024/01/21 08:51:31;;;;;;;2.55;2.00;;;;;;;-147.63;100.00;58384.75;5075479;28;20457;-46
2024/01/21 08:53:57;;;;;;;3.03;1.85;;;;;;;-147.63;100.00;58384.75;5084877;28;20054;-48
2024/01/21 08:56:25;;;;;;;3.25;1.63;;;;;;;-147.63;100.00;58384.75;5076365;28;20123;-55
2024/01/21 08:58:51;;;;;;;1.95;1.55;;;;;;;-147.63;100.00;58384.75;5069156;28;20183;-50
2024/01/21 09:01:16;;;;;;;2.38;1.50;;;;;;;-147.63;100.00;58384.75;5071717;28;20024;-49
2024/01/21 09:03:42;;;;;;;1.70;1.50;;;;;;;-147.63;100.00;58384.75;5069649;28;20020;-49
2024/01/21 09:06:07;;;;;;;2.58;1.80;;;;;;;-147.63;100.00;58384.75;5072649;28;20036;-50
2024/01/21 09:08:32;;;;;;;2.92;1.52;;;;;;;-147.63;100.00;58384.75;5078012;28;20393;-51
2024/01/21 09:10:58;;;;;;;2.15;1.50;;;;;;;-147.63;100.00;58384.75;5081745;28;20023;-52
2024/01/21 09:13:23;;;;;;;2.63;1.55;;;;;;;-147.63;100.00;58384.75;5081324;28;20515;-51
2024/01/21 09:15:48;;;;;;;2.03;1.60;;;;;;;-147.63;100.00;58384.75;5072859;28;20048;-48
2024/01/21 09:18:14;;;;;;;3.97;1.88;;;;;;;-147.63;100.00;58384.75;5057050;28;20040;-47
2024/01/21 09:20:39;;;;;;;2.53;1.65;;;;;;;-147.63;100.00;58384.75;5077634;28;20111;-47
2024/01/21 09:23:05;;;;;;;2.45;1.63;;;;;;;-147.63;100.00;58384.75;5075472;28;20451;-48
2024/01/21 09:25:30;;;;;;;2.63;1.40;;;;;;;-147.63;100.00;58384.75;5087572;28;20089;-49
2024/01/21 09:27:55;;;;;;;2.25;1.73;;;;;;;-147.63;100.00;58384.75;5069801;28;20073;-51
2024/01/21 09:30:21;;;;;;;2.60;1.25;;;;;;;-147.63;100.00;58384.75;5075327;28;20036;-48
2024/01/21 09:32:46;;;;;;;1.65;1.40;;;;;;;-147.63;100.00;58384.75;5076400;28;20028;-49
2024/01/21 09:35:11;;;;;;;2.42;1.60;;;;;;;-147.63;100.00;58384.75;5082075;28;20562;-48
2024/01/21 09:37:37;;;;;;;2.75;1.58;;;;;;;-147.63;100.00;58384.75;5083796;28;20111;-47
2024/01/21 09:40:03;;;;;;;3.08;1.70;;;;;;;-147.63;100.00;58384.75;5076233;28;20564;-44
2024/01/21 09:42:29;;;;;;;1.83;1.40;;;;;;;-147.63;100.00;58384.75;5059606;28;20499;-45
2024/01/21 09:44:54;;;;;;;1.90;1.70;;;;;;;-147.63;100.00;58384.75;5079239;28;20032;-46
2024/01/21 09:47:20;;;;;;;2.03;1.58;;;;;;;-147.63;100.00;58384.75;5077444;28;20016;-45
2024/01/21 09:49:47;;;;;;;2.67;1.45;;;;;;;-147.63;100.00;58384.75;5083830;28;20463;-50
2024/01/21 09:52:12;;;;;;;2.05;1.50;;;;;;;-147.63;100.00;58384.75;5074536;28;20031;-50
2024/01/21 09:54:38;;;;;;;1.95;1.48;;;;;;;-147.63;100.00;58384.75;5073214;28;20405;-46
2024/01/21 09:57:05;;;;;;;4.68;1.75;;;;;;;-147.63;100.00;58384.75;5056590;28;20058;-44
2024/01/21 09:59:31;;;;;;;2.60;1.70;;;;;;;-147.63;100.00;58384.75;5061330;28;20024;-47
2024/01/21 10:01:57;;;;;;;2.78;1.70;;;;;;;-147.63;100.00;58384.75;5074774;28;20500;-47
2024/01/21 10:04:22;;;;;;;4.75;1.60;;;;;;;-147.63;100.00;58384.75;5062975;28;20028;-45
2024/01/21 10:06:51;;;;;;;2.95;1.50;;;;;;;-147.63;100.00;58384.75;5075989;28;20082;-44
2024/01/21 10:09:19;;;;;;;2.90;1.60;;;;;;;-147.63;100.00;58384.75;5059228;28;20055;-46
2024/01/21 10:11:55;;;;;;;2.90;1.52;;;;;;;-147.63;100.00;58384.75;5075807;28;20028;-49
2024/01/21 10:14:21;;;;;;;1.98;1.40;;;;;;;-147.63;100.00;58384.75;5074706;28;21068;-51
2024/01/21 10:16:47;;;;;;;2.30;1.50;;;;;;;-147.63;100.00;58384.75;5077093;28;20044;-52
2024/01/21 10:19:25;;;;;;;2.42;1.48;;;;;;;-147.63;100.00;58384.75;5071163;28;20138;-48
2024/01/21 10:21:50;;;;;;;1.73;1.45;;;;;;;-147.63;100.00;58384.75;5066063;28;20618;-49
2024/01/21 10:24:19;;;;;;;1.75;1.30;;;;;;;-147.63;100.00;58384.75;5080245;28;20122;-52
2024/01/21 10:26:45;;;;;;;2.53;1.75;;;;;;;-147.63;100.00;58384.75;5062465;28;20155;-50
2024/01/21 10:29:11;;;;;;;2.15;1.45;;;;;;;-147.63;100.00;58384.75;5055480;28;20051;-48
2024/01/21 10:31:36;;;;;;;2.70;1.90;;;;;;;-147.63;100.00;58384.75;5073921;28;20445;-52
2024/01/21 10:34:02;;;;;;;3.65;1.30;;;;;;;-147.63;100.00;58384.75;5073419;28;20016;-50
2024/01/21 10:36:32;;;;;;;3.00;1.40;;;;;;;-147.63;100.00;58384.75;5057362;28;20854;-50
2024/01/21 10:38:59;;;;;;;1.83;1.50;;;;;;;-147.63;100.00;58384.75;5082889;28;20032;-46
2024/01/21 10:41:30;;;;;;;1.35;1.25;;;;;;;-147.63;100.00;58384.75;5060235;28;20021;-48
2024/01/21 10:43:57;;;;;;;1.80;1.33;;;;;;;-147.63;100.00;58384.75;5073685;28;20119;-49
2024/01/21 10:46:24;;;;;;;2.67;1.75;;;;;;;-147.63;100.00;58384.75;5048311;28;20025;-50
2024/01/21 10:48:55;;;;;;;2.58;1.60;;;;;;;-147.63;100.00;58384.75;5080130;28;20115;-51
2024/01/21 10:51:22;;;;;;;2.33;2.13;;;;;;;-147.63;100.00;58384.75;5070619;28;20028;-49
2024/01/21 10:53:49;;;;;;;1.92;1.48;;;;;;;-147.63;100.00;58384.75;5082210;28;20039;-49
2024/01/21 10:56:15;;;;;;;5.85;1.40;;;;;;;-147.63;100.00;58384.75;5075458;28;20031;-49
2024/01/21 10:58:40;;;;;;;3.78;1.60;;;;;;;-147.63;100.00;58384.75;5075110;28;20024;-43
2024/01/21 11:01:06;;;;;;;1.60;1.33;;;;;;;-147.63;100.00;58384.75;5063803;28;20560;-44
2024/01/21 11:03:33;;;;;;;1.90;1.10;;;;;;;-147.63;100.00;58384.75;5063388;28;20056;-46